createdAt,value
2023-09-08T00:00:26.474Z,5.80
2023-09-08T00:02:53.256Z,4.95
2023-09-08T00:05:19.897Z,5.10
2023-09-08T00:07:46.620Z,4.97
2023-09-08T00:10:13.355Z,4.45
2023-09-08T00:12:40.461Z,4.25
2023-09-08T00:15:08.156Z,4.45
2023-09-08T00:17:34.880Z,4.22
2023-09-08T00:20:01.669Z,4.20
2023-09-08T00:22:28.404Z,4.43
2023-09-08T00:24:56.044Z,4.60
2023-09-08T00:27:22.743Z,4.68
2023-09-08T00:29:49.444Z,4.82
2023-09-08T00:32:17.104Z,3.90
2023-09-08T00:34:44.571Z,4.47
2023-09-08T00:37:11.686Z,4.20
2023-09-08T00:39:40.242Z,4.20
2023-09-08T00:42:08.132Z,4.70
2023-09-08T00:44:35.294Z,4.60
2023-09-08T00:47:02.037Z,4.68
2023-09-08T00:49:29.759Z,4.40
2023-09-08T00:51:56.870Z,4.80
2023-09-08T00:54:23.558Z,4.28
2023-09-08T00:56:56.545Z,4.53
2023-09-08T00:59:23.627Z,4.00
2023-09-08T01:01:50.359Z,4.65
2023-09-08T01:04:17.330Z,4.63
2023-09-08T01:06:46.227Z,4.20
2023-09-08T01:09:14.453Z,4.10
2023-09-08T01:11:41.314Z,4.50
2023-09-08T01:14:08.836Z,4.10
2023-09-08T01:16:35.909Z,3.80
2023-09-08T01:19:05.932Z,4.15
2023-09-08T01:22:08.229Z,4.00
2023-09-08T01:24:56.670Z,4.20
2023-09-08T01:27:26.136Z,4.88
2023-09-08T01:29:55.076Z,4.45
2023-09-08T01:32:22.174Z,4.53
2023-09-08T01:34:48.916Z,4.47
2023-09-08T01:37:15.604Z,4.07
2023-09-08T01:39:42.246Z,4.70
2023-09-08T01:42:08.950Z,4.30
2023-09-08T01:44:37.281Z,4.57
2023-09-08T01:47:04.178Z,4.43
2023-09-08T01:49:30.842Z,4.75
2023-09-08T01:51:58.993Z,4.63
2023-09-08T01:54:25.732Z,5.18
2023-09-08T01:56:52.530Z,5.25
2023-09-08T01:59:19.226Z,4.97
2023-09-08T02:01:45.993Z,5.13
2023-09-08T02:04:12.757Z,5.00
2023-09-08T02:06:39.501Z,5.28
2023-09-08T02:09:06.144Z,5.25
2023-09-08T02:11:32.810Z,5.43
2023-09-08T02:13:59.936Z,4.97
2023-09-08T02:16:26.776Z,4.65
2023-09-08T02:18:53.537Z,5.25
2023-09-08T02:21:20.731Z,5.55
2023-09-08T02:23:47.387Z,5.13
2023-09-08T02:26:14.224Z,4.90
2023-09-08T02:28:41.043Z,4.80
2023-09-08T02:31:08.017Z,5.13
2023-09-08T02:33:34.756Z,4.53
2023-09-08T02:36:08.491Z,5.65
2023-09-08T02:38:38.693Z,5.40
2023-09-08T02:41:06.061Z,6.03
2023-09-08T02:43:32.799Z,5.82
2023-09-08T02:45:59.553Z,6.28
2023-09-08T02:48:26.698Z,6.72
2023-09-08T02:50:54.987Z,6.70
2023-09-08T02:53:21.936Z,6.88
2023-09-08T02:55:48.562Z,6.72
2023-09-08T02:58:15.298Z,6.25
2023-09-08T03:00:41.951Z,6.72
2023-09-08T03:03:09.133Z,7.05
2023-09-08T03:05:36.532Z,6.88
2023-09-08T03:08:03.502Z,6.88
2023-09-08T03:10:30.398Z,7.28
2023-09-08T03:12:57.915Z,7.47
2023-09-08T03:15:24.717Z,7.88
2023-09-08T03:17:51.480Z,8.40
2023-09-08T03:20:18.279Z,7.65
2023-09-08T03:22:45.002Z,6.78
2023-09-08T03:25:11.655Z,7.57
2023-09-08T03:27:38.406Z,8.13
2023-09-08T03:30:05.791Z,8.15
2023-09-08T03:32:33.047Z,7.43
2023-09-08T03:35:00.906Z,8.02
2023-09-08T03:37:28.025Z,6.90
2023-09-08T03:39:54.761Z,6.43
2023-09-08T03:42:21.731Z,6.95
2023-09-08T03:44:48.914Z,7.40
2023-09-08T03:47:15.791Z,7.93
2023-09-08T03:49:42.561Z,9.95
2023-09-08T03:52:09.273Z,9.77
2023-09-08T03:54:35.953Z,8.13
2023-09-08T03:57:02.651Z,9.35
2023-09-08T03:59:29.280Z,8.05
2023-09-08T04:01:55.980Z,6.97
2023-09-08T04:04:23.306Z,8.27
2023-09-08T04:06:50.024Z,10.57
2023-09-08T04:09:16.814Z,10.05
2023-09-08T04:11:43.545Z,7.57
2023-09-08T04:14:10.275Z,7.15
2023-09-08T04:16:37.099Z,8.20
2023-09-08T04:19:04.911Z,7.95
2023-09-08T04:21:31.968Z,8.25
2023-09-08T04:23:58.723Z,9.23
2023-09-08T04:26:26.064Z,7.35
2023-09-08T04:28:52.768Z,7.43
2023-09-08T04:31:20.649Z,8.05
2023-09-08T04:33:47.421Z,7.47
2023-09-08T04:36:14.616Z,8.48
2023-09-08T04:38:42.803Z,7.47
2023-09-08T04:41:10.675Z,7.03
2023-09-08T04:43:37.549Z,7.95
2023-09-08T04:46:04.889Z,7.20
2023-09-08T04:48:32.175Z,7.88
2023-09-08T04:50:59.269Z,8.63
2023-09-08T04:53:26.620Z,7.90
2023-09-08T04:55:53.421Z,7.43
2023-09-08T04:58:20.169Z,8.27
2023-09-08T05:00:47.575Z,8.38
2023-09-08T05:03:14.384Z,7.65
2023-09-08T05:05:41.268Z,6.65
2023-09-08T05:08:08.106Z,8.60
2023-09-08T05:10:35.635Z,7.40
2023-09-08T05:13:02.354Z,8.85
2023-09-08T05:15:29.289Z,8.95
2023-09-08T05:17:56.014Z,9.13
2023-09-08T05:20:23.525Z,7.80
2023-09-08T05:22:50.447Z,6.80
2023-09-08T05:25:17.928Z,7.10
2023-09-08T05:27:46.821Z,6.90
2023-09-08T05:30:14.076Z,8.68
2023-09-08T05:32:41.602Z,8.77
2023-09-08T05:35:09.277Z,8.40
2023-09-08T05:37:36.014Z,7.85
2023-09-08T05:40:04.842Z,7.35
2023-09-08T05:42:31.664Z,9.43
2023-09-08T05:44:58.420Z,8.18
2023-09-08T05:47:25.161Z,8.68
2023-09-08T05:49:52.614Z,7.53
2023-09-08T05:52:19.454Z,7.85
2023-09-08T05:54:47.250Z,7.80
2023-09-08T05:57:32.612Z,7.68
2023-09-08T05:59:59.565Z,7.05
2023-09-08T06:02:26.428Z,7.93
2023-09-08T06:04:53.129Z,7.25
2023-09-08T06:07:19.869Z,6.55
2023-09-08T06:09:46.629Z,7.20
2023-09-08T06:12:13.452Z,6.32
2023-09-08T06:14:42.065Z,7.80
2023-09-08T06:17:11.246Z,7.20
2023-09-08T06:19:38.068Z,6.90
2023-09-08T06:22:04.878Z,7.97
2023-09-08T06:24:31.844Z,7.47
2023-09-08T06:26:58.802Z,6.97
2023-09-08T06:29:25.569Z,6.32
2023-09-08T06:31:52.316Z,7.03
2023-09-08T06:34:22.780Z,7.10
2023-09-08T06:36:50.485Z,7.63
2023-09-08T06:39:17.305Z,7.25
2023-09-08T06:41:44.205Z,6.97
2023-09-08T06:44:14.755Z,6.88
2023-09-08T06:46:41.828Z,5.97
2023-09-08T06:49:09.054Z,6.97
2023-09-08T06:51:36.098Z,7.20
2023-09-08T06:54:04.100Z,8.13
2023-09-08T06:56:37.844Z,7.15
2023-09-08T06:59:05.595Z,7.63
2023-09-08T07:01:33.110Z,7.68
2023-09-08T07:04:00.567Z,7.35
2023-09-08T07:06:27.933Z,6.80
2023-09-08T07:08:56.747Z,7.65
2023-09-08T07:11:23.521Z,7.45
2023-09-08T07:13:50.927Z,7.13
2023-09-08T07:16:17.799Z,6.75
2023-09-08T07:18:44.924Z,6.93
2023-09-08T07:21:11.925Z,7.55
2023-09-08T07:23:39.402Z,7.85
2023-09-08T07:26:08.560Z,6.35
2023-09-08T07:28:35.921Z,6.65
2023-09-08T07:31:06.534Z,7.32
2023-09-08T07:33:38.130Z,7.60
2023-09-08T07:36:06.973Z,6.30
2023-09-08T07:38:34.627Z,5.95
2023-09-08T07:41:04.858Z,6.70
2023-09-08T07:43:32.450Z,5.93
2023-09-08T07:45:59.544Z,5.88
2023-09-08T07:48:26.598Z,6.07
2023-09-08T07:50:53.569Z,6.80
2023-09-08T07:53:20.330Z,6.00
2023-09-08T07:55:47.112Z,6.35
2023-09-08T07:58:13.811Z,4.75
2023-09-08T08:00:42.090Z,7.22
2023-09-08T08:03:09.726Z,7.15
2023-09-08T08:05:37.209Z,7.55
2023-09-08T08:08:04.100Z,7.38
2023-09-08T08:10:31.424Z,6.72
2023-09-08T08:12:58.303Z,7.70
2023-09-08T08:15:39.385Z,7.03
2023-09-08T08:18:07.385Z,6.88
2023-09-08T08:20:37.731Z,6.75
2023-09-08T08:23:06.273Z,6.13
2023-09-08T08:25:33.788Z,6.03
2023-09-08T08:28:02.080Z,6.43
2023-09-08T08:30:29.499Z,6.35
2023-09-08T08:32:56.531Z,6.05
2023-09-08T08:35:23.445Z,5.55
2023-09-08T08:38:08.600Z,6.28
2023-09-08T08:40:39.459Z,6.45
2023-09-08T08:43:06.489Z,5.50
2023-09-08T08:45:34.068Z,5.57
2023-09-08T08:51:03.722Z,4.80
2023-09-08T08:53:33.442Z,5.32
2023-09-08T08:56:02.478Z,5.35
2023-09-08T08:58:32.423Z,5.22
2023-09-08T09:01:01.076Z,5.90
2023-09-08T09:03:29.428Z,5.90
2023-09-08T09:05:56.264Z,5.03
2023-09-08T09:08:27.706Z,4.97
2023-09-08T09:11:14.466Z,4.97
2023-09-08T09:13:41.936Z,5.20
2023-09-08T09:16:14.703Z,5.30
2023-09-08T09:19:11.518Z,5.28
2023-09-08T09:21:52.264Z,4.70
2023-09-08T09:24:30.685Z,4.80
2023-09-08T09:26:58.264Z,4.60
2023-09-08T09:29:24.977Z,5.15
2023-09-08T09:32:07.773Z,4.78
2023-09-08T09:35:04.758Z,4.90
2023-09-08T09:37:32.260Z,5.00
2023-09-08T09:40:01.089Z,4.80
2023-09-08T09:42:29.392Z,5.50
2023-09-08T09:44:56.297Z,4.90
2023-09-08T09:47:23.695Z,5.00
2023-09-08T09:49:50.707Z,4.75
2023-09-08T09:52:27.210Z,5.15
2023-09-08T09:54:58.049Z,5.20
2023-09-08T09:57:26.014Z,5.00
2023-09-08T09:59:54.817Z,4.95
2023-09-08T10:02:22.773Z,4.78
2023-09-08T10:04:51.358Z,5.10
2023-09-08T10:07:19.075Z,4.68
2023-09-08T10:09:46.264Z,4.55
2023-09-08T10:12:16.998Z,4.82
2023-09-08T10:14:44.760Z,4.63
2023-09-08T10:17:17.517Z,5.30
2023-09-08T10:19:51.429Z,4.80
2023-09-08T10:22:23.694Z,4.75
2023-09-08T10:24:54.900Z,4.90
2023-09-08T10:27:23.382Z,5.10
2023-09-08T10:29:51.192Z,4.82
2023-09-08T10:32:19.637Z,4.90
2023-09-08T10:34:47.251Z,4.80
2023-09-08T10:37:28.914Z,5.22
2023-09-08T10:39:55.912Z,4.93
2023-09-08T10:42:30.527Z,4.45
2023-09-08T10:45:00.191Z,4.45
2023-09-08T10:47:31.887Z,5.10
2023-09-08T10:50:01.537Z,4.57
2023-09-08T10:52:28.697Z,4.50
2023-09-08T10:54:56.966Z,5.32
2023-09-08T10:57:26.412Z,3.97
2023-09-08T10:59:53.638Z,4.28
2023-09-08T11:02:40.173Z,3.80
2023-09-08T11:05:15.013Z,3.90
2023-09-08T11:07:44.524Z,3.78
2023-09-08T11:10:12.627Z,3.80
2023-09-08T11:12:39.736Z,4.03
2023-09-08T11:15:09.720Z,4.20
2023-09-08T11:17:43.666Z,3.90
2023-09-08T11:20:11.955Z,3.75
2023-09-08T11:22:40.598Z,4.45
2023-09-08T11:25:09.065Z,3.90
2023-09-08T11:27:36.118Z,4.30
2023-09-08T11:30:03.132Z,4.15
2023-09-08T11:32:34.325Z,4.00
2023-09-08T11:35:10.291Z,3.67
2023-09-08T11:37:43.719Z,4.07
2023-09-08T11:40:13.652Z,3.83
2023-09-08T11:42:45.251Z,3.90
2023-09-08T11:45:19.378Z,3.90
2023-09-08T11:47:46.378Z,3.90
2023-09-08T11:50:16.902Z,4.32
2023-09-08T11:55:18.460Z,3.90
2023-09-08T11:57:47.905Z,4.40
2023-09-08T12:00:18.443Z,4.07
2023-09-08T12:02:46.510Z,4.28
2023-09-08T12:05:26.369Z,4.00
2023-09-08T12:07:54.970Z,4.03
2023-09-08T12:10:23.021Z,4.30
2023-09-08T12:12:54.710Z,4.22
2023-09-08T12:15:51.204Z,4.20
2023-09-08T12:18:18.311Z,4.30
2023-09-08T12:20:45.873Z,4.35
2023-09-08T12:23:22.736Z,4.13
2023-09-08T12:25:51.803Z,4.22
2023-09-08T12:28:20.512Z,4.40
2023-09-08T12:30:47.952Z,4.18
2023-09-08T12:33:16.354Z,4.63
2023-09-08T12:35:49.438Z,4.18
2023-09-08T12:38:16.201Z,4.38
2023-09-08T12:40:42.903Z,4.90
2023-09-08T12:43:21.256Z,5.57
2023-09-08T12:45:54.542Z,4.30
2023-09-08T12:48:21.333Z,4.38
2023-09-08T12:50:49.422Z,4.07
2023-09-08T12:53:18.176Z,4.78
2023-09-08T12:55:45.083Z,4.30
2023-09-08T12:58:11.708Z,4.80
2023-09-08T13:00:38.474Z,4.70
2023-09-08T13:03:05.697Z,4.22
2023-09-08T13:05:35.379Z,4.40
2023-09-08T13:08:02.152Z,4.57
2023-09-08T13:10:28.992Z,4.30
2023-09-08T13:12:56.001Z,4.15
2023-09-08T13:15:24.994Z,4.50
2023-09-08T13:17:52.435Z,4.30
2023-09-08T13:20:19.550Z,4.25
2023-09-08T13:22:46.406Z,4.45
2023-09-08T13:25:13.234Z,5.20
2023-09-08T13:27:45.885Z,4.72
2023-09-08T13:30:14.955Z,4.32
2023-09-08T13:32:42.039Z,4.50
2023-09-08T13:35:09.277Z,4.20
2023-09-08T13:37:36.005Z,4.22
2023-09-08T13:40:05.661Z,4.28
2023-09-08T13:42:33.591Z,4.60
2023-09-08T13:45:00.710Z,4.45
2023-09-08T13:47:28.818Z,4.40
2023-09-08T13:49:58.380Z,4.43
2023-09-08T13:52:27.568Z,4.70
2023-09-08T13:55:19.255Z,4.05
2023-09-08T13:57:43.671Z,4.18
2023-09-08T14:00:16.377Z,4.32
2023-09-08T14:02:49.463Z,4.47
2023-09-08T14:05:19.483Z,4.43
2023-09-08T14:07:55.972Z,4.32
2023-09-08T14:12:54.429Z,4.28
2023-09-08T14:15:23.959Z,4.20
2023-09-08T14:17:51.496Z,4.18
2023-09-08T14:20:18.160Z,4.47
2023-09-08T14:22:45.002Z,4.40
2023-09-08T14:25:11.728Z,4.63
2023-09-08T14:27:38.952Z,4.47
2023-09-08T14:30:06.943Z,5.35
2023-09-08T14:32:33.867Z,5.43
2023-09-08T14:35:00.547Z,4.13
2023-09-08T14:37:48.680Z,4.70
2023-09-08T14:40:16.450Z,3.75
2023-09-08T14:42:43.162Z,4.30
2023-09-08T14:45:10.371Z,4.20
2023-09-08T14:47:37.241Z,4.38
2023-09-08T14:50:04.537Z,4.20
2023-09-08T14:52:31.319Z,4.53
2023-09-08T14:54:58.258Z,4.20
2023-09-08T14:57:24.981Z,4.07
2023-09-08T14:59:55.384Z,5.97
2023-09-08T15:02:23.649Z,4.30
2023-09-08T15:04:50.539Z,4.30
2023-09-08T15:07:17.471Z,4.28
2023-09-08T15:09:44.141Z,4.45
2023-09-08T15:12:11.262Z,4.13
2023-09-08T15:14:37.946Z,4.70
2023-09-08T15:17:06.268Z,4.22
2023-09-08T15:19:33.428Z,4.25
2023-09-08T15:22:00.337Z,4.70
2023-09-08T15:24:27.066Z,4.30
2023-09-08T15:26:54.723Z,4.60
2023-09-08T15:29:21.541Z,4.53
2023-09-08T15:31:49.961Z,4.60
2023-09-08T15:34:16.905Z,4.57
2023-09-08T15:36:43.682Z,5.20
2023-09-08T15:39:10.442Z,7.45
2023-09-08T15:41:37.172Z,4.97
2023-09-08T15:44:04.170Z,5.00
2023-09-08T15:46:31.137Z,4.45
2023-09-08T15:48:57.965Z,4.32
2023-09-08T15:51:24.674Z,4.35
2023-09-08T15:53:51.490Z,4.20
2023-09-08T15:56:18.267Z,4.00
2023-09-08T15:58:45.073Z,3.70
2023-09-08T16:01:13.321Z,5.10
2023-09-08T16:03:40.862Z,4.25
2023-09-08T16:06:09.286Z,4.10
2023-09-08T16:08:37.828Z,5.20
2023-09-08T16:11:04.563Z,4.80
2023-09-08T16:13:32.481Z,4.50
2023-09-08T16:16:00.162Z,4.35
2023-09-08T16:18:27.276Z,4.13
2023-09-08T16:20:54.101Z,4.28
2023-09-08T16:23:21.474Z,4.60
2023-09-08T16:25:48.169Z,4.40
2023-09-08T16:28:14.871Z,4.50
2023-09-08T16:30:41.805Z,3.90
2023-09-08T16:33:08.691Z,4.03
2023-09-08T16:35:35.960Z,5.22
2023-09-08T16:38:03.551Z,6.88
2023-09-08T16:40:30.200Z,5.72
2023-09-08T16:43:17.384Z,4.13
2023-09-08T16:45:45.449Z,4.32
2023-09-08T16:48:14.739Z,5.68
2023-09-08T16:50:41.497Z,4.18
2023-09-08T16:53:09.266Z,4.82
2023-09-08T16:55:36.099Z,4.97
2023-09-08T16:58:02.941Z,4.20
2023-09-08T17:00:29.786Z,5.70
2023-09-08T17:02:56.631Z,5.70
2023-09-08T17:05:23.569Z,5.18
2023-09-08T17:07:52.212Z,5.65
2023-09-08T17:10:19.226Z,12.73
2023-09-08T17:12:46.201Z,5.25
2023-09-08T17:15:13.026Z,5.57
2023-09-08T17:17:40.348Z,4.70
2023-09-08T17:20:09.092Z,5.45
2023-09-08T17:22:36.167Z,4.78
2023-09-08T17:25:04.263Z,4.97
2023-09-08T17:27:32.095Z,5.95
2023-09-08T17:30:00.390Z,6.35
2023-09-08T17:32:27.413Z,6.43
2023-09-08T17:34:55.555Z,10.68
2023-09-08T17:37:24.560Z,10.13
2023-09-08T17:39:51.340Z,9.48
2023-09-08T17:42:18.142Z,5.15
2023-09-08T17:44:45.526Z,6.70
2023-09-08T17:47:14.314Z,12.90
2023-09-08T17:49:41.170Z,8.98
2023-09-08T17:52:08.081Z,5.07
2023-09-08T17:54:35.116Z,9.20
2023-09-08T17:57:02.092Z,11.93
2023-09-08T17:59:28.808Z,11.65
2023-09-08T18:01:55.765Z,13.82
2023-09-08T18:04:44.196Z,7.68
2023-09-08T18:07:11.344Z,6.15
2023-09-08T18:09:38.343Z,6.93
2023-09-08T18:12:05.762Z,8.30
2023-09-08T18:14:32.571Z,12.52
2023-09-08T18:16:59.563Z,6.00
2023-09-08T18:19:26.357Z,9.00
2023-09-08T18:21:53.136Z,10.32
2023-09-08T18:24:19.838Z,8.93
2023-09-08T18:26:46.784Z,5.60
2023-09-08T18:29:13.534Z,6.53
2023-09-08T18:31:42.159Z,9.52
2023-09-08T18:34:09.959Z,15.27
2023-09-08T18:36:38.344Z,6.00
2023-09-08T18:39:10.813Z,7.93
2023-09-08T18:41:39.239Z,7.13
2023-09-08T18:44:06.106Z,8.90
2023-09-08T18:46:33.671Z,8.57
2023-09-08T18:49:00.410Z,9.65
2023-09-08T18:51:27.235Z,15.70
2023-09-08T18:53:58.204Z,17.45
2023-09-08T18:58:51.782Z,9.02
2023-09-08T19:01:19.038Z,9.73
2023-09-08T19:03:45.942Z,10.45
2023-09-08T19:06:12.947Z,13.63
2023-09-08T19:08:39.889Z,10.20
2023-09-08T19:11:06.856Z,9.30
2023-09-08T19:13:33.717Z,8.88
2023-09-08T19:16:00.649Z,14.38
2023-09-08T19:18:27.540Z,8.18
2023-09-08T19:20:57.266Z,7.93
2023-09-08T19:23:24.481Z,7.07
2023-09-08T19:25:52.661Z,5.90
2023-09-08T19:28:19.526Z,12.93
2023-09-08T19:30:49.111Z,9.52
2023-09-08T19:33:17.700Z,15.32
2023-09-08T19:35:45.953Z,17.23
2023-09-08T19:38:12.914Z,21.33
2023-09-08T19:40:40.108Z,20.77
2023-09-08T19:43:07.410Z,23.30
2023-09-08T19:45:37.455Z,18.30
2023-09-08T19:48:06.755Z,17.00
2023-09-08T19:50:34.156Z,7.72
2023-09-08T19:53:01.000Z,7.20
2023-09-08T19:55:28.274Z,9.48
2023-09-08T19:57:55.173Z,9.60
2023-09-08T20:00:22.397Z,11.35
2023-09-08T20:02:49.254Z,12.55
2023-09-08T20:05:16.512Z,9.77
2023-09-08T20:07:44.939Z,8.25
2023-09-08T20:10:12.756Z,8.15
2023-09-08T20:12:42.429Z,8.35
2023-09-08T20:15:10.065Z,6.82
2023-09-08T20:17:37.007Z,6.10
2023-09-08T20:20:04.190Z,4.93
2023-09-08T20:22:31.289Z,5.93
2023-09-08T20:24:58.183Z,5.10
2023-09-08T20:27:26.448Z,4.88
2023-09-08T20:29:57.069Z,5.47
2023-09-08T20:32:25.106Z,8.35
2023-09-08T20:34:52.082Z,10.48
2023-09-08T20:37:19.992Z,11.50
2023-09-08T20:39:46.895Z,12.45
2023-09-08T20:42:13.892Z,23.77
2023-09-08T20:44:41.230Z,20.45
2023-09-08T20:47:08.658Z,18.80
2023-09-08T20:49:35.557Z,14.98
2023-09-08T20:52:02.442Z,14.20
2023-09-08T20:54:29.855Z,11.10
2023-09-08T20:56:57.295Z,8.90
2023-09-08T20:59:42.722Z,9.30
2023-09-08T21:02:10.116Z,8.68
2023-09-08T21:04:36.912Z,10.82
2023-09-08T21:07:05.354Z,10.32
2023-09-08T21:09:32.098Z,8.25
2023-09-08T21:11:59.006Z,8.93
2023-09-08T21:14:25.743Z,8.13
2023-09-08T21:16:52.572Z,10.05
2023-09-08T21:19:20.739Z,10.70
2023-09-08T21:21:47.914Z,12.18
2023-09-08T21:24:14.751Z,7.55
2023-09-08T21:26:41.719Z,7.80
2023-09-08T21:29:10.079Z,10.73
2023-09-08T21:31:37.432Z,5.93
2023-09-08T21:34:04.837Z,22.35
2023-09-08T21:36:32.140Z,20.20
2023-09-08T21:39:01.260Z,14.20
2023-09-08T21:41:29.798Z,12.70
2023-09-08T21:43:56.976Z,16.65
2023-09-08T21:46:23.848Z,18.08
2023-09-08T21:48:50.644Z,15.63
2023-09-08T21:51:17.582Z,15.77
2023-09-08T21:53:44.500Z,11.73
2023-09-08T21:56:11.415Z,22.98
2023-09-08T21:58:39.909Z,10.48
2023-09-08T22:01:08.312Z,14.05
2023-09-08T22:03:35.633Z,14.57
2023-09-08T22:06:03.536Z,13.57
2023-09-08T22:08:30.525Z,22.90
2023-09-08T22:11:06.199Z,18.05
2023-09-08T22:13:52.166Z,16.90
2023-09-08T22:16:19.173Z,19.50
2023-09-08T22:18:46.128Z,16.05
2023-09-08T22:21:32.705Z,10.40
2023-09-08T22:23:59.708Z,9.55
2023-09-08T22:26:26.597Z,11.25
2023-09-08T22:28:53.525Z,12.40
2023-09-08T22:31:20.367Z,8.52
2023-09-08T22:33:48.641Z,7.57
2023-09-08T22:36:15.803Z,8.52
2023-09-08T22:38:42.763Z,10.98
2023-09-08T22:41:09.645Z,7.63
2023-09-08T22:43:36.755Z,7.93
2023-09-08T22:46:04.263Z,7.68
2023-09-08T22:48:32.449Z,9.95
2023-09-08T22:51:00.309Z,9.23
2023-09-08T22:53:28.571Z,9.05
2023-09-08T22:55:55.387Z,8.35
2023-09-08T22:58:22.397Z,7.32
2023-09-08T23:00:49.199Z,9.55
2023-09-08T23:03:16.053Z,7.47
2023-09-08T23:05:43.588Z,5.68
2023-09-08T23:08:10.838Z,6.07
2023-09-08T23:10:37.563Z,6.22
2023-09-08T23:13:04.433Z,9.52
2023-09-08T23:15:31.202Z,9.52
2023-09-08T23:17:58.335Z,6.60
2023-09-08T23:20:25.268Z,6.97
2023-09-08T23:22:52.013Z,9.05
2023-09-08T23:25:18.763Z,6.50
2023-09-08T23:27:45.702Z,8.82
2023-09-08T23:30:13.114Z,6.45
2023-09-08T23:32:41.024Z,7.82
2023-09-08T23:35:09.564Z,7.18
2023-09-08T23:37:36.473Z,11.73
2023-09-08T23:40:05.987Z,10.30
2023-09-08T23:42:32.779Z,7.35
2023-09-08T23:44:59.566Z,6.90
2023-09-08T23:47:26.466Z,6.10
2023-09-08T23:49:53.203Z,6.95
2023-09-08T23:52:20.108Z,6.55
2023-09-08T23:54:46.799Z,5.55
2023-09-08T23:57:32.264Z,6.57
2023-09-08T23:59:59.162Z,5.72
